Silverstreet, South Carolina
Current Conditions -  °F | °C
As of 3:55 PM on Friday 31 Oct 2014 (Local Time) from KEOE Reporting Station
Broken Clouds Broken Clouds  
Wind Chill: 63°   Ceiling: 11000
Heat Index: 63°   Visibility: 10mi
Dew Point: 43°   Wind: 6mph
Humidity: 48%   Direction: 240°WSW
Pressure: 29.83"   Gusts: NA
Location:  34.22°N, 81.72°W
Report Text: KEOE 311955Z AUTO 24005KT 10SM SCT046 SCT050 BKN110 17/06 A2983 RMK AO2
Loading
Personal Weather Stations






























Interactive Weather Map
Tropical Storm Tracking
New forecast layout! Learn more

10-Day Weather Forecast

Advertisements
Track Severe Weather on mobile